createdAt,value
2023-05-01T00:02:11.329Z,22.40
2023-05-01T00:04:37.945Z,22.40
2023-05-01T00:07:04.562Z,22.40
2023-05-01T00:09:32.141Z,22.40
2023-05-01T00:11:58.753Z,22.40
2023-05-01T00:24:31.471Z,22.40
2023-05-01T00:26:59.189Z,22.40
2023-05-01T00:29:25.875Z,22.40
2023-05-01T00:31:53.130Z,22.40
2023-05-01T00:34:19.748Z,22.40
2023-05-01T00:36:48.028Z,22.40
2023-05-01T00:39:16.487Z,22.40
2023-05-01T00:41:43.014Z,22.40
2023-05-01T00:44:09.598Z,22.40
2023-05-01T00:46:36.322Z,22.40
2023-05-01T00:49:03.918Z,22.40
2023-05-01T00:51:31.585Z,22.40
2023-05-01T00:54:00.241Z,22.40
2023-05-01T00:56:26.838Z,22.40
2023-05-01T00:58:54.050Z,22.40
2023-05-01T01:01:24.027Z,22.40
2023-05-01T01:03:51.730Z,22.40
2023-05-01T01:09:55.904Z,22.40
2023-05-01T01:12:39.178Z,22.40
2023-05-01T01:15:11.677Z,22.40
2023-05-01T01:20:40.182Z,22.40
2023-05-01T01:23:41.927Z,22.30
2023-05-01T01:29:22.953Z,22.30
2023-05-01T01:32:06.798Z,22.30
2023-05-01T01:34:36.255Z,22.30
2023-05-01T01:37:11.604Z,22.30
2023-05-01T01:42:36.297Z,22.30
2023-05-01T01:45:10.578Z,22.30
2023-05-01T01:47:41.652Z,22.30
2023-05-01T01:50:09.964Z,22.30
2023-05-01T01:52:38.505Z,22.30
2023-05-01T01:57:46.636Z,22.30
2023-05-01T02:00:14.521Z,22.30
2023-05-01T02:02:42.523Z,22.30
2023-05-01T02:05:14.190Z,22.30
2023-05-01T02:10:14.849Z,22.30
2023-05-01T02:12:44.496Z,22.30
2023-05-01T02:15:11.553Z,22.30
2023-05-01T02:17:40.976Z,22.30
2023-05-01T02:20:10.311Z,22.30
2023-05-01T02:22:38.373Z,22.30
2023-05-01T02:25:07.092Z,22.30
2023-05-01T02:27:41.017Z,22.30
2023-05-01T02:30:09.345Z,22.30
2023-05-01T02:32:36.083Z,22.30
2023-05-01T02:37:34.274Z,22.30
2023-05-01T02:40:01.928Z,22.30
2023-05-01T02:42:29.282Z,22.30
2023-05-01T02:45:03.821Z,22.30
2023-05-01T02:52:39.953Z,22.30
2023-05-01T03:00:14.100Z,22.30
2023-05-01T03:17:51.734Z,22.20
2023-05-01T03:20:18.336Z,22.20
2023-05-01T03:22:44.871Z,22.20
2023-05-01T03:25:11.447Z,22.30
2023-05-01T03:27:38.003Z,22.20
2023-05-01T03:30:04.991Z,22.20
2023-05-01T03:32:32.024Z,22.20
2023-05-01T03:34:58.582Z,22.20
2023-05-01T03:39:57.616Z,22.20
2023-05-01T03:44:55.926Z,22.20
2023-05-01T03:54:57.926Z,22.20
2023-05-01T03:57:24.747Z,22.20
2023-05-01T04:02:22.964Z,22.20
2023-05-01T04:12:24.179Z,22.20
2023-05-01T04:14:50.740Z,22.20
2023-05-01T04:17:17.346Z,22.20
2023-05-01T04:19:44.220Z,22.20
2023-05-01T04:22:10.813Z,22.20
2023-05-01T04:24:37.470Z,22.20
2023-05-01T04:29:37.074Z,22.20
2023-05-01T04:32:03.851Z,22.20
2023-05-01T04:37:03.554Z,22.20
2023-05-01T04:42:02.278Z,22.20
2023-05-01T04:47:04.510Z,22.20
2023-05-01T04:52:02.844Z,22.10
2023-05-01T04:54:29.419Z,22.20
2023-05-01T04:59:27.426Z,22.10
2023-05-01T05:01:53.981Z,22.10
2023-05-01T05:04:20.676Z,22.20
2023-05-01T05:06:47.314Z,22.10
2023-05-01T05:09:14.455Z,22.10
2023-05-01T05:11:41.212Z,22.20
2023-05-01T05:14:07.781Z,22.10
2023-05-01T05:16:34.788Z,22.10
2023-05-01T05:19:01.822Z,22.20
2023-05-01T05:21:28.500Z,22.10
2023-05-01T05:23:55.061Z,22.20
2023-05-01T05:41:31.647Z,22.10
2023-05-01T05:43:58.210Z,22.10
2023-05-01T05:46:24.938Z,22.10
2023-05-01T05:48:51.592Z,22.10
2023-05-01T05:51:19.320Z,22.10
2023-05-01T05:53:45.842Z,22.10
2023-05-01T05:56:12.407Z,22.10
2023-05-01T05:58:39.033Z,22.10
2023-05-01T06:01:06.944Z,22.10
2023-05-01T06:06:05.415Z,22.10
2023-05-01T06:11:03.852Z,22.10
2023-05-01T06:13:30.380Z,22.20
2023-05-01T06:15:57.194Z,22.20
2023-05-01T06:18:23.882Z,22.20
2023-05-01T06:20:51.829Z,22.20
2023-05-01T06:23:18.813Z,22.10
2023-05-01T06:25:45.549Z,22.20
2023-05-01T06:28:12.188Z,22.20
2023-05-01T06:30:38.725Z,22.20
2023-05-01T06:33:05.334Z,22.20
2023-05-01T06:35:31.928Z,22.20
2023-05-01T06:37:58.526Z,22.20
2023-05-01T06:40:25.130Z,22.20
2023-05-01T06:42:51.711Z,22.20
2023-05-01T06:45:18.359Z,22.20
2023-05-01T06:47:44.910Z,22.20
2023-05-01T06:50:11.565Z,22.20
2023-05-01T06:52:38.219Z,22.20
2023-05-01T06:55:05.031Z,22.20
2023-05-01T06:57:31.595Z,22.20
2023-05-01T06:59:58.529Z,22.20
2023-05-01T07:02:26.109Z,22.20
2023-05-01T07:04:53.202Z,22.20
2023-05-01T07:07:19.854Z,22.20
2023-05-01T07:09:46.456Z,22.20
2023-05-01T07:12:13.052Z,22.20
2023-05-01T07:14:40.620Z,22.20
2023-05-01T07:19:40.337Z,22.20
2023-05-01T07:22:06.877Z,22.20
2023-05-01T07:24:33.461Z,22.20
2023-05-01T07:27:00.019Z,22.20
2023-05-01T07:29:26.643Z,22.20
2023-05-01T07:31:53.324Z,22.20
2023-05-01T07:39:23.570Z,22.20
2023-05-01T07:46:53.196Z,22.20
2023-05-01T07:59:26.133Z,22.20
2023-05-01T08:01:52.759Z,22.20
2023-05-01T08:06:52.958Z,22.20
2023-05-01T08:11:51.322Z,22.20
2023-05-01T08:19:27.849Z,22.20
2023-05-01T08:21:54.491Z,22.20
2023-05-01T08:24:21.047Z,22.20
2023-05-01T08:26:48.654Z,22.20
2023-05-01T08:29:15.230Z,22.20
2023-05-01T08:31:43.192Z,22.20
2023-05-01T08:36:41.468Z,22.20
2023-05-01T08:41:40.228Z,22.30
2023-05-01T08:44:09.082Z,22.30
2023-05-01T08:46:47.846Z,22.30
2023-05-01T08:49:16.968Z,22.30
2023-05-01T08:56:54.024Z,22.30
2023-05-01T08:59:23.000Z,22.30
2023-05-01T09:01:51.159Z,22.30
2023-05-01T09:04:18.388Z,22.30
2023-05-01T09:06:45.160Z,22.30
2023-05-01T09:09:11.881Z,22.30
2023-05-01T09:11:38.880Z,22.30
2023-05-01T09:14:05.673Z,22.30
2023-05-01T09:21:35.416Z,22.30
2023-05-01T09:24:02.669Z,22.30
2023-05-01T09:29:01.684Z,22.30
2023-05-01T09:31:30.101Z,22.30
2023-05-01T09:36:27.129Z,22.30
2023-05-01T09:38:53.976Z,22.30
2023-05-01T09:41:21.176Z,22.30
2023-05-01T09:43:56.744Z,22.40
2023-05-01T09:46:25.776Z,22.40
2023-05-01T09:54:19.127Z,22.40
2023-05-01T09:59:21.124Z,22.40
2023-05-01T10:01:49.842Z,22.40
2023-05-01T10:04:16.692Z,22.40
2023-05-01T10:06:43.326Z,22.40
2023-05-01T10:09:17.376Z,22.40
2023-05-01T10:11:53.731Z,22.40
2023-05-01T10:14:21.195Z,22.40
2023-05-01T10:16:49.433Z,22.40
2023-05-01T10:19:17.959Z,22.40
2023-05-01T10:21:44.512Z,22.40
2023-05-01T10:26:46.308Z,22.50
2023-05-01T10:31:44.683Z,22.50
2023-05-01T10:37:00.907Z,22.50
2023-05-01T10:39:33.696Z,22.50
2023-05-01T10:50:26.138Z,22.50
2023-05-01T10:53:11.715Z,22.50
2023-05-01T10:58:12.840Z,22.60
2023-05-01T11:00:39.771Z,22.60
2023-05-01T11:03:21.750Z,22.60
2023-05-01T11:08:36.562Z,22.60
2023-05-01T11:14:01.404Z,22.60
2023-05-01T11:16:43.136Z,22.60
2023-05-01T11:19:13.934Z,22.60
2023-05-01T11:21:41.786Z,22.60
2023-05-01T11:24:09.153Z,22.60
2023-05-01T11:26:40.072Z,22.60
2023-05-01T11:29:07.140Z,22.60
2023-05-01T11:31:33.936Z,22.60
2023-05-01T11:34:01.169Z,22.60
2023-05-01T11:36:29.033Z,22.60
2023-05-01T11:38:59.733Z,22.60
2023-05-01T11:41:27.458Z,22.70
2023-05-01T11:44:00.456Z,22.70
2023-05-01T11:46:29.012Z,22.70
2023-05-01T11:48:56.688Z,22.70
2023-05-01T11:51:24.847Z,22.70
2023-05-01T11:56:37.764Z,22.70
2023-05-01T11:59:16.356Z,22.70
2023-05-01T12:01:44.870Z,22.70
2023-05-01T12:04:12.697Z,22.70
2023-05-01T12:09:18.986Z,22.70
2023-05-01T12:14:20.519Z,22.70
2023-05-01T12:19:20.502Z,22.70
2023-05-01T12:21:48.307Z,22.70
2023-05-01T12:24:17.849Z,22.70
2023-05-01T12:26:46.149Z,22.70
2023-05-01T12:29:13.129Z,22.70
2023-05-01T12:37:03.120Z,22.80
2023-05-01T12:42:14.498Z,22.80
2023-05-01T12:47:13.151Z,22.80
2023-05-01T12:49:40.500Z,22.80
2023-05-01T12:59:50.082Z,22.80
2023-05-01T13:04:50.037Z,22.80
2023-05-01T13:07:18.653Z,22.80
2023-05-01T13:09:59.907Z,22.80
2023-05-01T13:12:28.054Z,22.80
2023-05-01T13:14:54.797Z,22.80
2023-05-01T13:17:32.697Z,22.80
2023-05-01T13:22:37.622Z,22.80
2023-05-01T13:25:14.106Z,22.80
2023-05-01T13:27:41.496Z,22.80
2023-05-01T13:30:10.069Z,22.80
2023-05-01T13:35:12.388Z,22.80
2023-05-01T13:37:40.211Z,22.80
2023-05-01T13:40:07.396Z,22.80
2023-05-01T13:42:34.041Z,22.80
2023-05-01T13:45:05.590Z,22.80
2023-05-01T13:47:32.601Z,22.80
2023-05-01T13:49:59.484Z,22.80
2023-05-01T13:52:26.759Z,22.90
2023-05-01T13:54:56.376Z,22.80
2023-05-01T13:57:23.080Z,22.90
2023-05-01T13:59:49.708Z,22.90
2023-05-01T14:02:28.299Z,22.90
2023-05-01T14:04:55.891Z,22.90
2023-05-01T14:07:25.042Z,22.90
2023-05-01T14:09:56.696Z,22.90
2023-05-01T14:12:31.364Z,22.90
2023-05-01T14:14:59.390Z,22.90
2023-05-01T14:20:08.695Z,22.80
2023-05-01T14:25:23.112Z,22.90
2023-05-01T14:27:50.162Z,22.90
2023-05-01T14:30:34.314Z,22.90
2023-05-01T14:33:11.742Z,22.90
2023-05-01T14:35:51.087Z,22.90
2023-05-01T14:38:19.302Z,22.90
2023-05-01T14:48:34.441Z,23.00
2023-05-01T14:51:02.075Z,23.00
2023-05-01T14:53:32.191Z,23.00
2023-05-01T14:55:58.743Z,23.10
2023-05-01T14:58:25.361Z,23.10
2023-05-01T15:00:51.951Z,23.10
2023-05-01T15:03:18.687Z,23.10
2023-05-01T15:05:45.940Z,23.10
2023-05-01T15:08:12.493Z,23.10
2023-05-01T15:10:39.152Z,23.10
2023-05-01T15:13:06.527Z,23.20
2023-05-01T15:30:46.720Z,23.10
2023-05-01T15:33:16.882Z,23.10
2023-05-01T15:40:52.303Z,23.10
2023-05-01T15:43:19.093Z,23.10
2023-05-01T15:45:45.806Z,23.00
2023-05-01T15:55:48.663Z,23.10
2023-05-01T15:58:15.902Z,23.00
2023-05-01T16:00:45.090Z,23.00
2023-05-01T16:08:19.210Z,23.10
2023-05-01T16:10:45.899Z,23.00
2023-05-01T16:13:12.891Z,23.10
2023-05-01T16:15:39.463Z,23.00
2023-05-01T16:18:06.415Z,23.00
2023-05-01T16:20:39.091Z,23.10
2023-05-01T16:23:05.827Z,23.10
2023-05-01T16:30:41.869Z,23.10
2023-05-01T16:33:19.978Z,23.10
2023-05-01T16:40:52.359Z,23.10
2023-05-01T16:43:21.865Z,23.10
2023-05-01T16:45:48.526Z,23.10
2023-05-01T16:48:22.884Z,23.00
2023-05-01T16:50:49.707Z,23.00
2023-05-01T16:53:16.582Z,23.00
2023-05-01T16:55:43.671Z,23.00
2023-05-01T16:58:10.322Z,23.00
2023-05-01T17:00:36.874Z,23.10
2023-05-01T17:03:03.706Z,23.00
2023-05-01T17:05:30.516Z,23.00
2023-05-01T17:07:57.060Z,23.00
2023-05-01T17:10:23.576Z,23.00
2023-05-01T17:12:50.178Z,23.00
2023-05-01T17:15:16.880Z,23.10
2023-05-01T17:17:43.641Z,23.00
2023-05-01T17:20:11.190Z,23.00
2023-05-01T17:22:37.720Z,23.10
2023-05-01T17:25:04.767Z,23.00
2023-05-01T17:27:31.872Z,23.00
2023-05-01T17:29:58.659Z,23.00
2023-05-01T17:32:33.598Z,23.00
2023-05-01T17:40:12.641Z,23.00
2023-05-01T17:45:11.520Z,23.00
2023-05-01T17:50:14.113Z,23.00
2023-05-01T17:55:17.052Z,23.00
2023-05-01T18:02:49.688Z,23.00
2023-05-01T18:05:16.514Z,23.00
2023-05-01T18:07:43.082Z,23.00
2023-05-01T18:10:10.673Z,23.00
2023-05-01T18:12:37.475Z,23.00
2023-05-01T18:15:04.203Z,23.00
2023-05-01T18:27:38.813Z,23.00
2023-05-01T18:30:05.955Z,23.00
2023-05-01T18:32:46.124Z,23.00
2023-05-01T18:35:15.039Z,23.00
2023-05-01T18:37:42.431Z,23.00
2023-05-01T18:40:09.728Z,23.00
2023-05-01T18:45:09.863Z,23.00
2023-05-01T18:47:36.584Z,23.00
2023-05-01T18:50:03.411Z,23.00
2023-05-01T18:52:30.256Z,23.00
2023-05-01T18:54:56.851Z,23.00
2023-05-01T18:57:23.560Z,23.00
2023-05-01T18:59:50.181Z,23.00
2023-05-01T19:07:19.680Z,23.00
2023-05-01T19:12:17.722Z,23.00
2023-05-01T19:14:44.313Z,23.00
2023-05-01T19:17:11.185Z,22.90
2023-05-01T19:19:37.805Z,23.00
2023-05-01T19:22:04.459Z,23.00
2023-05-01T19:24:31.039Z,23.00
2023-05-01T19:26:57.636Z,22.90
2023-05-01T19:29:24.195Z,22.90
2023-05-01T19:31:50.810Z,22.90
2023-05-01T19:34:17.485Z,23.00
2023-05-01T19:36:44.162Z,23.00
2023-05-01T19:39:10.754Z,22.90
2023-05-01T19:41:37.319Z,23.00
2023-05-01T19:44:04.048Z,22.90
2023-05-01T19:49:02.086Z,23.00
2023-05-01T19:51:28.647Z,22.90
2023-05-01T19:56:26.777Z,22.90
2023-05-01T19:58:54.655Z,22.90
2023-05-01T20:01:22.054Z,22.90
2023-05-01T20:03:48.739Z,22.90
2023-05-01T20:06:15.592Z,22.90
2023-05-01T20:08:42.477Z,22.90
2023-05-01T20:11:09.807Z,22.90
2023-05-01T20:16:09.829Z,23.00
2023-05-01T20:26:11.931Z,22.90
2023-05-01T20:31:11.343Z,22.90
2023-05-01T20:36:05.810Z,22.90
2023-05-01T20:38:32.498Z,22.90
2023-05-01T20:40:59.040Z,22.90
2023-05-01T20:43:25.621Z,22.90
2023-05-01T20:45:52.515Z,22.90
2023-05-01T20:48:19.538Z,22.90
2023-05-01T20:50:48.164Z,22.90
2023-05-01T20:53:14.748Z,22.90
2023-05-01T20:55:41.306Z,22.90
2023-05-01T20:58:07.968Z,22.90
2023-05-01T21:00:34.489Z,22.90
2023-05-01T21:03:01.436Z,22.90
2023-05-01T21:05:28.063Z,22.90
2023-05-01T21:07:56.294Z,22.90
2023-05-01T21:10:23.021Z,22.90
2023-05-01T21:20:35.310Z,22.90
2023-05-01T21:30:34.517Z,22.90
2023-05-01T21:40:42.278Z,22.80
2023-05-01T21:43:09.595Z,22.80
2023-05-01T21:45:40.935Z,22.80
2023-05-01T21:48:08.921Z,22.80
2023-05-01T21:50:38.405Z,22.80
2023-05-01T21:53:06.745Z,22.80
2023-05-01T21:55:33.632Z,22.80
2023-05-01T21:58:00.646Z,22.80
2023-05-01T22:00:27.940Z,22.80
2023-05-01T22:02:54.608Z,22.80
2023-05-01T22:05:22.466Z,22.80
2023-05-01T22:07:51.956Z,22.80
2023-05-01T22:12:51.460Z,22.80
2023-05-01T22:15:18.391Z,22.80
2023-05-01T22:17:45.703Z,22.80
2023-05-01T22:20:12.473Z,22.80
2023-05-01T22:22:40.221Z,22.80
2023-05-01T22:30:11.371Z,22.80
2023-05-01T22:32:38.022Z,22.80
2023-05-01T22:35:04.909Z,22.80
2023-05-01T22:37:31.481Z,22.80
2023-05-01T22:39:58.286Z,22.80
2023-05-01T22:42:25.029Z,22.80
2023-05-01T22:44:51.823Z,22.80
2023-05-01T22:49:50.059Z,22.80
2023-05-01T22:57:19.654Z,22.80
2023-05-01T22:59:46.311Z,22.80
2023-05-01T23:02:16.274Z,22.80
2023-05-01T23:09:47.222Z,22.80
2023-05-01T23:20:09.387Z,22.80
2023-05-01T23:22:37.997Z,22.80
2023-05-01T23:25:06.321Z,22.80
2023-05-01T23:27:44.261Z,22.80
2023-05-01T23:30:12.054Z,22.80
2023-05-01T23:32:40.397Z,22.80
2023-05-01T23:35:14.075Z,22.70
2023-05-01T23:37:40.878Z,22.70
2023-05-01T23:42:40.046Z,22.70
2023-05-01T23:45:07.929Z,22.80
2023-05-01T23:47:34.910Z,22.70
2023-05-01T23:50:01.901Z,22.70
2023-05-01T23:52:28.828Z,22.70
2023-05-01T23:57:27.141Z,22.70
